Accueil
METAR-TAF:

METAR-TAF

Aéroports :

Oswego County Airport

Fulton, New York, États-Unis

latitude: 43-21-03N, longitude: 076-23-17W, altitude: 145 m

Observation

Le bulletin a été fait il y a 30 minutes, à 06:54 UTC
Vent calme
Température 12°C
Humidité 88%
Pression 1015 hPa
Visibilité: 16.1 km
Nuages fragmentés à une hauteur de 12000 ft

METAR: KFZY 210654Z AUTO 00000KT 10SM BKN120 12/10 A2996 RMK AO2 RAB05E14 SLP146 P0000 T01170100

Heure: 03:24 (07:24 UTC)


TAF: absent

Observations et prévisions météorologiques de plus de 4000 aéroports (messages METAR et TAF).

Les stations disponibles sont représentées par des disques jaunes et rouges sur la carte.

Passer la souris dessus pour voir le nom de la station.

Cliquer dessus pour voir les observations et prévisions météorologiques.

Pour changer de carte: cliquez sur les boutons verts avec une croix noire pour zoomer, sur le bouton vert avec un tiret pour effectuer un zoom arrière, ou sur les flèches vertes pour les cartes adjacentes.


METAR-TAF: